Aurora Center, South Dakota
Current Conditions -  °F | °C
As of 6:53 PM on Tuesday 21 Oct 2014 (Local Time) from KMHE Reporting Station
Clear Clear  
Wind Chill: 71°   Ceiling: Unl
Heat Index: 71°   Visibility: 10mi
Dew Point: 40°   Wind: 13mph
Humidity: 32%   Direction: 160°SSE
Pressure: 29.9"   Gusts: NA
Location:  43.5853°N, 98.5581°W
Report Text: KMHE 212353Z AUTO 16011KT 10SM CLR 22/04 A2990 RMK AO2 SLP123 T02170044 10272 20217 55000
Loading
Personal Weather Stations






























Interactive Weather Map
Tropical Storm Tracking
New forecast layout! Learn more

10-Day Weather Forecast

Advertisements
Track Severe Weather on mobile